Nisyros — ZDKC2 — position and weather

sailwx.info

Track history (hours):
 
Tides and Currents Weather Stations Pressure Air Temp Water Temp Dewpoint Dewpoint Depression Visibility Wind Speed Wind Dir Waves Ship Positions

Nisyros

Last reported at 2017-Nov-17 20:18 UTC. Time now 2017-Nov-18 04:49 UTC.
Position N 36°09' W 005°23'.

Length 102 m; draft 6.9 m.

Type: Tanker. MMSI: 236590000.

Date/timePositionNaut miles runAvg speedWind from/ knotsBaromVisibWave heightAir tempDewpointWater temp
2017-Nov-17 20:18N 36°09' W 005°23'1 0.0
2017-Nov-16 23:23N 36°09' W 005°23'2 5.2
2017-Nov-16 22:57N 36°07' W 005°23'510.3
2017-Nov-16 22:30N 36°02' W 005°23'510.4
2017-Nov-16 22:00N 35°58' W 005°27'3 0.2
2017-Nov-15 23:06N 35°56' W 005°30'111.3
2017-Nov-15 23:00N 35°57' W 005°30'610.3
2017-Nov-15 22:27N 36°01' W 005°25'510.3
2017-Nov-15 22:00N 36°06' W 005°23'2 0.1
2017-Nov-15 00:30N 36°08' W 005°23'1 1.1
2017-Nov-14 23:58N 36°08' W 005°22'1 0.1
2017-Nov-14 04:18N 36°09' W 005°22'0 0.0
2017-Nov-14 04:00N 36°09' W 005°22'0 0.0
2017-Nov-14 03:22N 36°09' W 005°22'0 0.0
2017-Nov-14 02:58N 36°09' W 005°22'0 0.0
2017-Nov-14 02:29N 36°09' W 005°22'0 0.0
2017-Nov-14 01:58N 36°09' W 005°22'0 0.0
2017-Nov-14 01:27N 36°09' W 005°22'0 0.0
2017-Nov-14 00:44N 36°09' W 005°22'0 0.0
2017-Nov-14 00:20N 36°09' W 005°22'0 0.0
2017-Nov-13 23:41N 36°09' W 005°22'0 0.0
2017-Nov-13 23:23N 36°09' W 005°22'0 0.0
2017-Nov-13 22:54N 36°09' W 005°22'0 0.0
2017-Nov-13 22:26N 36°09' W 005°22'0 0.0
2017-Nov-13 21:59N 36°09' W 005°22'1 0.0
2017-Nov-13 01:58N 36°09' W 005°23'0 0.1
2017-Nov-12 21:44N 36°09' W 005°22'0 0.0
2017-Nov-12 21:20N 36°09' W 005°22'0 0.0
2017-Nov-12 20:05N 36°09' W 005°22'0 0.1
2017-Nov-12 19:59N 36°09' W 005°22'0 0.0
2017-Nov-12 19:14N 36°09' W 005°22'0 0.0
2017-Nov-12 18:53N 36°09' W 005°22'0 0.0
2017-Nov-12 16:41N 36°09' W 005°22'0 0.1
2017-Nov-12 16:17N 36°09' W 005°22'0 0.1
2017-Nov-12 15:58N 36°09' W 005°22'0 0.1
2017-Nov-12 15:26N 36°09' W 005°22'0 0.0
2017-Nov-12 14:59N 36°09' W 005°22'0 0.0
2017-Nov-12 14:29N 36°09' W 005°22'0 0.0
2017-Nov-12 13:56N 36°09' W 005°22'0 0.4
2017-Nov-12 13:29N 36°09' W 005°22'4 5.9
2017-Nov-12 12:52N 36°05' W 005°22'410.7
2017-Nov-12 12:31N 36°02' W 005°22'713.2
2017-Nov-12 12:00N 35°57' W 005°27'2 0.2
2017-Nov-11 23:16N 35°58' W 005°30'3 9.9
2017-Nov-11 23:00N 35°59' W 005°27'610.0
2017-Nov-11 22:23N 36°04' W 005°22'3 8.0
2017-Nov-11 22:01N 36°07' W 005°22'2 0.1
2017-Nov-11 04:10N 36°08' W 005°22'0 2.2
2017-Nov-11 04:00N 36°09' W 005°23'1 1.9
2017-Nov-11 03:17N 36°07' W 005°22'2 0.3
2017-Nov-10 18:36N 36°06' W 005°20'2 7.1
2017-Nov-10 18:23N 36°07' W 005°18'0 0.1
2017-Nov-10 15:39N 36°07' W 005°18'1 0.1
2017-Nov-10 10:08N 36°06' W 005°19'1 8.4
2017-Nov-10 09:59N 36°06' W 005°20'3 0.3
2017-Nov-09 22:02N 36°08' W 005°23'0 0.8
2017-Nov-09 21:56N 36°08' W 005°23'  
Track history (hours):
 
Tides and Currents Weather Stations Pressure Air Temp Water Temp Dewpoint Dewpoint Depression Visibility Wind Speed Wind Dir Waves Ship Positions

Nisyros

Last reported at 2017-Nov-17 20:18 UTC. Time now 2017-Nov-18 04:49 UTC.
Position N 36°09' W 005°23'.

Length 102 m; draft 6.9 m.

Type: Tanker. MMSI: 236590000.

Date/timePositionNaut miles runAvg speedWind from/ knotsBaromVisibWave heightAir tempDewpointWater temp
2017-Nov-17 20:18N 36°09' W 005°23'1 0.0
2017-Nov-16 23:23N 36°09' W 005°23'2 5.2
2017-Nov-16 22:57N 36°07' W 005°23'510.3
2017-Nov-16 22:30N 36°02' W 005°23'510.4
2017-Nov-16 22:00N 35°58' W 005°27'3 0.2
2017-Nov-15 23:06N 35°56' W 005°30'111.3
2017-Nov-15 23:00N 35°57' W 005°30'610.3
2017-Nov-15 22:27N 36°01' W 005°25'510.3
2017-Nov-15 22:00N 36°06' W 005°23'2 0.1
2017-Nov-15 00:30N 36°08' W 005°23'1 1.1
2017-Nov-14 23:58N 36°08' W 005°22'1 0.1
2017-Nov-14 04:18N 36°09' W 005°22'0 0.0
2017-Nov-14 04:00N 36°09' W 005°22'0 0.0
2017-Nov-14 03:22N 36°09' W 005°22'0 0.0
2017-Nov-14 02:58N 36°09' W 005°22'0 0.0
2017-Nov-14 02:29N 36°09' W 005°22'0 0.0
2017-Nov-14 01:58N 36°09' W 005°22'0 0.0
2017-Nov-14 01:27N 36°09' W 005°22'0 0.0
2017-Nov-14 00:44N 36°09' W 005°22'0 0.0
2017-Nov-14 00:20N 36°09' W 005°22'0 0.0
2017-Nov-13 23:41N 36°09' W 005°22'0 0.0
2017-Nov-13 23:23N 36°09' W 005°22'0 0.0
2017-Nov-13 22:54N 36°09' W 005°22'0 0.0
2017-Nov-13 22:26N 36°09' W 005°22'0 0.0
2017-Nov-13 21:59N 36°09' W 005°22'1 0.0
2017-Nov-13 01:58N 36°09' W 005°23'0 0.1
2017-Nov-12 21:44N 36°09' W 005°22'0 0.0
2017-Nov-12 21:20N 36°09' W 005°22'0 0.0
2017-Nov-12 20:05N 36°09' W 005°22'0 0.1
2017-Nov-12 19:59N 36°09' W 005°22'0 0.0
2017-Nov-12 19:14N 36°09' W 005°22'0 0.0
2017-Nov-12 18:53N 36°09' W 005°22'0 0.0
2017-Nov-12 16:41N 36°09' W 005°22'0 0.1
2017-Nov-12 16:17N 36°09' W 005°22'0 0.1
2017-Nov-12 15:58N 36°09' W 005°22'0 0.1
2017-Nov-12 15:26N 36°09' W 005°22'0 0.0
2017-Nov-12 14:59N 36°09' W 005°22'0 0.0
2017-Nov-12 14:29N 36°09' W 005°22'0 0.0
2017-Nov-12 13:56N 36°09' W 005°22'0 0.4
2017-Nov-12 13:29N 36°09' W 005°22'4 5.9
2017-Nov-12 12:52N 36°05' W 005°22'410.7
2017-Nov-12 12:31N 36°02' W 005°22'713.2
2017-Nov-12 12:00N 35°57' W 005°27'2 0.2
2017-Nov-11 23:16N 35°58' W 005°30'3 9.9
2017-Nov-11 23:00N 35°59' W 005°27'610.0
2017-Nov-11 22:23N 36°04' W 005°22'3 8.0
2017-Nov-11 22:01N 36°07' W 005°22'2 0.1
2017-Nov-11 04:10N 36°08' W 005°22'0 2.2
2017-Nov-11 04:00N 36°09' W 005°23'1 1.9
2017-Nov-11 03:17N 36°07' W 005°22'2 0.3
2017-Nov-10 18:36N 36°06' W 005°20'2 7.1
2017-Nov-10 18:23N 36°07' W 005°18'0 0.1
2017-Nov-10 15:39N 36°07' W 005°18'1 0.1
2017-Nov-10 10:08N 36°06' W 005°19'1 8.4
2017-Nov-10 09:59N 36°06' W 005°20'3 0.3
2017-Nov-09 22:02N 36°08' W 005°23'0 0.8
2017-Nov-09 21:56N 36°08' W 005°23'  

Dump ship's entire track history